Time;durP1;ratioP1;P1;durP2;ratioP2;P2;SDS_P1;SDS_P2;PMS_P1;PMS_P2;Temp;Humidity;BMP_temperature;BMP_pressure;BME280_temperature;BME280_humidity;BME280_pressure;Samples;Min_cycle;Max_cycle;Signal;HPM_P1;HPM_P2
2021/05/03 00:00:16;;;;;;;6.00;3.63;;;;;;;4.57;100.00;101115.03;5036044;28;20244;-77
2021/05/03 00:02:42;;;;;;;5.67;3.50;;;;;;;4.49;100.00;101108.09;5018440;28;20187;-77
2021/05/03 00:05:17;;;;;;;6.00;3.77;;;;;;;4.49;100.00;101112.66;5051627;28;20191;-77
2021/05/03 00:07:42;;;;;;;7.47;3.67;;;;;;;4.55;100.00;101107.19;5020915;28;20306;-77
2021/05/03 00:10:08;;;;;;;5.30;3.80;;;;;;;4.53;100.00;101111.16;5052664;28;20920;-77
2021/05/03 00:12:34;;;;;;;6.73;3.77;;;;;;;4.51;100.00;101116.75;5034828;28;20591;-77
2021/05/03 00:15:02;;;;;;;5.63;3.60;;;;;;;4.46;100.00;101113.09;5003208;28;20204;-77
2021/05/03 00:17:28;;;;;;;5.27;3.27;;;;;;;4.33;100.00;101108.66;5052191;28;20226;-77
2021/05/03 00:19:56;;;;;;;6.17;3.50;;;;;;;4.39;100.00;101105.06;5052570;28;20510;-77
2021/05/03 00:22:23;;;;;;;4.87;3.47;;;;;;;4.40;100.00;101109.41;5050548;28;20223;-79
2021/05/03 00:24:49;;;;;;;3.63;3.33;;;;;;;4.43;100.00;101119.75;5003920;28;20290;-76
2021/05/03 00:27:17;;;;;;;3.83;3.40;;;;;;;4.38;100.00;101116.06;5034886;28;20623;-77
2021/05/03 00:29:45;;;;;;;5.13;3.43;;;;;;;4.49;100.00;101118.84;5035531;28;20566;-77
2021/05/03 00:32:12;;;;;;;5.83;3.23;;;;;;;4.35;100.00;101117.31;5034309;28;20227;-77
2021/05/03 00:34:38;;;;;;;5.80;3.43;;;;;;;4.35;100.00;101120.00;5036133;28;20271;-77
2021/05/03 00:37:03;;;;;;;3.80;3.10;;;;;;;4.33;100.00;101122.09;5018760;28;20620;-76
2021/05/03 00:39:31;;;;;;;5.50;3.00;;;;;;;4.38;100.00;101116.88;5020060;28;20180;-76
2021/05/03 00:41:59;;;;;;;6.47;3.67;;;;;;;4.47;100.00;101114.72;5034289;28;20282;-76
2021/05/03 00:44:27;;;;;;;2.97;2.63;;;;;;;4.28;100.00;101116.53;5035849;28;20566;-76
2021/05/03 00:46:55;;;;;;;5.27;3.33;;;;;;;4.37;100.00;101117.09;5034978;28;20249;-77
2021/05/03 00:49:20;;;;;;;5.50;3.10;;;;;;;4.34;100.00;101126.44;5015795;28;20187;-77
2021/05/03 00:51:48;;;;;;;3.87;2.97;;;;;;;4.34;100.00;101128.28;5034464;28;20234;-77
2021/05/03 00:54:14;;;;;;;4.60;3.10;;;;;;;4.14;100.00;101124.13;5034930;28;20184;-77
2021/05/03 00:56:44;;;;;;;3.90;3.07;;;;;;;4.19;100.00;101124.28;5034569;28;20584;-77
2021/05/03 00:59:14;;;;;;;5.00;3.13;;;;;;;4.17;100.00;101123.69;5019797;28;20278;-77
2021/05/03 01:01:40;;;;;;;4.57;3.23;;;;;;;4.18;100.00;101130.72;5033818;28;20780;-76
2021/05/03 01:04:05;;;;;;;3.50;3.10;;;;;;;4.16;100.00;101132.78;5018014;28;20188;-78
2021/05/03 01:06:32;;;;;;;5.40;2.80;;;;;;;4.23;100.00;101134.38;5018338;28;20228;-78
2021/05/03 01:08:57;;;;;;;4.70;2.93;;;;;;;4.24;100.00;101131.47;5052175;28;20388;-78
2021/05/03 01:11:23;;;;;;;7.00;3.30;;;;;;;4.15;100.00;101126.59;5035152;28;20838;-77
2021/05/03 01:13:48;;;;;;;5.23;2.93;;;;;;;4.12;100.00;101136.97;5001633;28;20184;-77
2021/05/03 01:16:14;;;;;;;8.43;4.60;;;;;;;4.13;100.00;101134.06;5034305;28;20293;-77
2021/05/03 01:18:40;;;;;;;5.53;2.97;;;;;;;4.14;100.00;101129.50;5051281;28;20604;-77
2021/05/03 01:21:06;;;;;;;3.17;2.77;;;;;;;4.04;100.00;101137.25;5017729;28;20716;-77
2021/05/03 01:23:34;;;;;;;5.27;2.87;;;;;;;4.21;100.00;101129.25;5033339;28;20645;-77
2021/05/03 01:26:02;;;;;;;3.60;2.87;;;;;;;4.17;100.00;101131.75;5033899;28;20234;-77
2021/05/03 01:28:28;;;;;;;5.67;3.30;;;;;;;4.20;100.00;101127.59;5019456;28;20211;-77
2021/05/03 01:30:53;;;;;;;3.47;3.10;;;;;;;4.16;100.00;101127.41;5017589;28;20664;-77
2021/05/03 01:33:19;;;;;;;4.43;3.07;;;;;;;4.16;100.00;101127.41;5017615;28;20184;-77
2021/05/03 01:35:47;;;;;;;3.30;3.00;;;;;;;4.20;100.00;101123.28;5017956;28;20227;-77
2021/05/03 01:38:13;;;;;;;3.50;2.93;;;;;;;4.17;100.00;101129.06;5033742;28;20211;-77
2021/05/03 01:40:40;;;;;;;4.50;3.07;;;;;;;4.26;100.00;101134.75;5033843;28;20266;-77
2021/05/03 01:43:26;;;;;;;3.40;3.03;;;;;;;4.14;100.00;101118.75;5016546;28;20191;-77
2021/05/03 01:45:53;;;;;;;6.57;3.30;;;;;;;4.16;100.00;101113.97;5026112;28;20974;-76
2021/05/03 01:48:22;;;;;;;5.37;3.40;;;;;;;4.08;100.00;101133.06;5013805;28;20243;-78
2021/05/03 01:50:48;;;;;;;3.30;3.00;;;;;;;4.09;100.00;101130.16;5017139;28;20219;-76
2021/05/03 01:53:14;;;;;;;6.37;2.93;;;;;;;4.06;100.00;101132.47;5033426;28;20183;-77
2021/05/03 01:55:42;;;;;;;6.00;3.30;;;;;;;4.06;100.00;101137.84;5051176;28;20223;-77
2021/05/03 01:58:08;;;;;;;3.97;3.10;;;;;;;4.12;100.00;101136.97;5018073;28;20215;-77
2021/05/03 02:00:41;;;;;;;4.03;3.13;;;;;;;4.05;100.00;101128.16;5017950;28;20221;-77
2021/05/03 02:03:12;;;;;;;5.60;3.47;;;;;;;3.87;100.00;101134.25;5050008;28;20187;-77
2021/05/03 02:05:40;;;;;;;3.80;2.97;;;;;;;3.98;100.00;101154.25;5016990;28;20594;-77
2021/05/03 02:08:10;;;;;;;4.83;3.40;;;;;;;4.06;100.00;101137.84;5034673;28;20199;-77
2021/05/03 02:10:45;;;;;;;7.77;3.63;;;;;;;3.99;100.00;101145.13;5050294;28;20242;-77
2021/05/03 02:13:14;;;;;;;6.90;3.57;;;;;;;4.00;100.00;101146.78;5034100;28;20606;-76
2021/05/03 02:15:43;;;;;;;5.63;3.37;;;;;;;3.96;100.00;101148.25;5000435;28;20227;-75
2021/05/03 02:18:13;;;;;;;3.70;3.37;;;;;;;3.96;100.00;101148.25;5050508;28;20176;-76
2021/05/03 02:20:38;;;;;;;3.87;3.20;;;;;;;3.96;100.00;101148.25;5032958;28;20311;-77
2021/05/03 02:23:05;;;;;;;5.33;3.63;;;;;;;3.77;100.00;101138.44;5051023;28;20638;-76
2021/05/03 02:25:31;;;;;;;6.57;3.67;;;;;;;3.88;100.00;101141.28;5032840;28;20234;-77
2021/05/03 02:27:59;;;;;;;4.53;3.40;;;;;;;3.95;100.00;101152.78;5033954;28;20200;-77
2021/05/03 02:30:27;;;;;;;6.37;3.70;;;;;;;3.91;100.00;101153.47;5033266;28;20187;-76
2021/05/03 02:32:52;;;;;;;4.13;3.73;;;;;;;3.90;100.00;101149.09;5032276;28;20260;-75
2021/05/03 02:35:20;;;;;;;7.30;3.90;;;;;;;3.82;100.00;101146.69;5032699;28;20649;-78
2021/05/03 02:37:48;;;;;;;4.77;3.47;;;;;;;3.90;100.00;101158.00;5000740;28;20204;-77
2021/05/03 02:40:16;;;;;;;6.03;3.73;;;;;;;3.96;100.00;101153.63;5050358;28;20558;-77
2021/05/03 02:42:45;;;;;;;6.13;3.67;;;;;;;3.91;100.00;101150.78;5016535;28;20714;-77
2021/05/03 02:45:11;;;;;;;7.20;4.53;;;;;;;3.89;100.00;101155.53;5033288;28;20215;-77
2021/05/03 02:47:37;;;;;;;5.30;3.80;;;;;;;3.85;100.00;101152.47;5017031;28;20648;-77
2021/05/03 02:50:05;;;;;;;6.03;4.13;;;;;;;3.81;100.00;101155.81;5029782;28;20179;-76
2021/05/03 02:52:30;;;;;;;4.70;4.23;;;;;;;3.91;100.00;101159.66;5015538;28;20322;-77
2021/05/03 02:54:56;;;;;;;5.13;3.93;;;;;;;3.85;100.00;101151.66;5000241;28;20179;-77
2021/05/03 02:57:26;;;;;;;5.73;3.93;;;;;;;3.83;100.00;101151.03;5032635;28;20233;-77
2021/05/03 02:59:52;;;;;;;5.97;4.13;;;;;;;3.83;100.00;101159.09;5017785;28;20202;-77
2021/05/03 03:02:20;;;;;;;6.30;4.47;;;;;;;3.81;100.00;101155.81;5032035;28;20223;-77
2021/05/03 03:04:46;;;;;;;4.70;4.10;;;;;;;3.79;100.00;101157.03;5032923;28;20186;-77
2021/05/03 03:07:11;;;;;;;4.40;3.73;;;;;;;3.83;100.00;101148.34;5050903;28;20231;-78
2021/05/03 03:09:39;;;;;;;5.40;4.20;;;;;;;3.81;100.00;101152.28;5033483;28;20187;-77
2021/05/03 03:12:06;;;;;;;5.17;4.40;;;;;;;3.80;100.00;101156.03;5047577;28;20245;-77
2021/05/03 03:14:31;;;;;;;7.17;3.90;;;;;;;3.88;100.00;101162.78;5013838;28;20326;-77
2021/05/03 03:16:57;;;;;;;6.50;4.03;;;;;;;3.80;100.00;101164.88;5012205;28;21024;-76
2021/05/03 03:19:27;;;;;;;6.80;4.50;;;;;;;3.84;100.00;101156.16;4997412;28;20184;-77
2021/05/03 03:21:55;;;;;;;4.33;3.93;;;;;;;3.91;100.00;101156.16;5022623;28;20270;-76
2021/05/03 03:24:23;;;;;;;5.40;4.27;;;;;;;3.87;100.00;101154.94;5029579;28;20676;-76
2021/05/03 03:26:49;;;;;;;6.73;4.37;;;;;;;3.90;100.00;101154.47;5012143;28;20228;-77
2021/05/03 03:29:14;;;;;;;5.37;4.13;;;;;;;3.78;100.00;101150.03;5025677;28;20203;-78
2021/05/03 03:31:40;;;;;;;6.10;4.43;;;;;;;3.70;100.00;101159.19;4998808;28;20705;-79
2021/05/03 03:34:06;;;;;;;6.03;3.87;;;;;;;3.62;100.00;101156.72;4999942;28;20188;-77
2021/05/03 03:36:32;;;;;;;6.37;4.03;;;;;;;3.64;100.00;101154.66;5015781;28;20722;-77
2021/05/03 03:39:00;;;;;;;5.77;3.97;;;;;;;3.68;100.00;101157.72;5017173;28;20188;-77
2021/05/03 03:41:25;;;;;;;6.30;4.30;;;;;;;3.66;100.00;101157.94;5016731;28;20219;-77
2021/05/03 03:43:51;;;;;;;5.53;4.13;;;;;;;3.66;100.00;101163.31;5003386;28;20559;-76
2021/05/03 03:46:20;;;;;;;6.93;4.17;;;;;;;3.52;100.00;101161.75;5015332;28;20235;-76
2021/05/03 03:48:51;;;;;;;5.17;4.17;;;;;;;3.53;100.00;101163.38;5033564;28;20310;-78
2021/05/03 03:51:17;;;;;;;7.80;4.40;;;;;;;3.52;100.00;101169.81;5017657;28;20698;-78
2021/05/03 03:53:45;;;;;;;7.63;4.47;;;;;;;3.54;100.00;101158.84;5016882;28;20183;-77
2021/05/03 03:56:15;;;;;;;6.63;4.60;;;;;;;3.52;100.00;101164.44;5015569;28;20228;-77
2021/05/03 03:58:43;;;;;;;5.70;4.27;;;;;;;3.49;100.00;101161.34;5000458;28;20583;-77
2021/05/03 04:01:10;;;;;;;4.97;4.47;;;;;;;3.46;100.00;101167.13;5008648;28;20224;-78
2021/05/03 04:03:46;;;;;;;6.97;4.60;;;;;;;3.50;100.00;101165.69;4993926;28;20198;-78
2021/05/03 04:09:22;;;;;;;7.10;4.60;;;;;;;3.60;100.00;101174.91;5029750;28;20197;-77
2021/05/03 04:21:05;;;;;;;5.70;5.10;;;;;;;3.93;100.00;101173.69;5002464;28;20185;-78
2021/05/03 04:24:43;;;;;;;10.80;5.67;;;;;;;4.77;100.00;101186.44;4995733;28;20196;-78
2021/05/03 04:27:11;;;;;;;7.13;5.33;;;;;;;5.28;100.00;101180.47;5012184;28;20225;-77
2021/05/03 04:29:39;;;;;;;5.53;4.97;;;;;;;5.74;100.00;101187.75;4996937;28;20192;-77
2021/05/03 04:32:07;;;;;;;6.27;5.27;;;;;;;5.98;100.00;101178.72;4994707;28;20224;-77
2021/05/03 04:34:33;;;;;;;6.00;4.57;;;;;;;5.55;100.00;101188.00;4995977;28;20189;-77
2021/05/03 04:37:01;;;;;;;4.73;4.30;;;;;;;5.57;100.00;101177.00;4995677;28;20248;-77
2021/05/03 04:39:27;;;;;;;5.00;4.50;;;;;;;6.01;100.00;101177.44;4995880;28;20263;-77
2021/05/03 04:41:54;;;;;;;8.23;4.80;;;;;;;6.30;100.00;101177.38;5026165;28;20221;-77
2021/05/03 04:44:20;;;;;;;5.77;4.23;;;;;;;6.25;100.00;101175.38;4996491;28;20191;-77
2021/05/03 04:46:48;;;;;;;6.37;4.50;;;;;;;6.11;100.00;101175.81;4994861;28;20229;-77
2021/05/03 04:49:16;;;;;;;11.37;6.60;;;;;;;6.00;100.00;101183.88;4998345;28;20196;-78
2021/05/03 04:51:44;;;;;;;11.33;7.03;;;;;;;5.75;100.00;101189.41;5013160;28;20232;-78
2021/05/03 04:54:14;;;;;;;12.07;6.70;;;;;;;5.81;100.00;101193.91;5015669;28;20239;-78
2021/05/03 04:56:40;;;;;;;8.03;4.97;;;;;;;5.87;100.00;101198.38;5014303;28;20224;-78
2021/05/03 04:59:08;;;;;;;7.17;4.47;;;;;;;5.56;100.00;101199.59;5022314;28;20214;-78
2021/05/03 05:01:38;;;;;;;7.33;4.50;;;;;;;5.75;100.00;101205.59;5030761;28;20231;-77
2021/05/03 05:04:06;;;;;;;5.07;4.60;;;;;;;5.89;100.00;101206.22;4984857;28;20216;-78
2021/05/03 05:06:34;;;;;;;6.67;4.53;;;;;;;5.74;100.00;101202.31;5033131;28;20250;-78
2021/05/03 05:09:04;;;;;;;4.93;4.37;;;;;;;5.84;100.00;101204.22;5016697;28;20650;-77
2021/05/03 05:11:32;;;;;;;5.27;4.63;;;;;;;5.80;100.00;101205.72;5033445;28;20226;-76
2021/05/03 05:13:58;;;;;;;5.10;4.60;;;;;;;6.23;100.00;101209.03;5030957;28;20189;-78
2021/05/03 05:16:26;;;;;;;6.40;4.90;;;;;;;6.85;100.00;101195.72;5021648;28;20641;-77
2021/05/03 05:18:52;;;;;;;4.97;4.30;;;;;;;6.71;100.00;101203.25;5011733;28;20792;-77
2021/05/03 05:21:17;;;;;;;5.63;4.27;;;;;;;6.05;100.00;101206.41;5002313;28;20240;-77
2021/05/03 05:23:43;;;;;;;6.17;4.73;;;;;;;5.54;100.00;101205.22;5033891;28;20672;-76
2021/05/03 05:26:10;;;;;;;5.23;4.30;;;;;;;5.44;100.00;101201.44;5007340;28;20641;-76
2021/05/03 05:28:38;;;;;;;4.30;3.90;;;;;;;5.36;100.00;101204.41;4983147;28;20251;-78
2021/05/03 05:31:06;;;;;;;4.40;4.00;;;;;;;5.43;100.00;101208.66;5013118;28;20217;-76
2021/05/03 05:33:36;;;;;;;4.70;4.30;;;;;;;5.43;100.00;101203.28;5010785;28;20188;-76
2021/05/03 05:36:02;;;;;;;6.70;5.20;;;;;;;5.56;100.00;101205.00;5011195;28;20260;-76
2021/05/03 05:38:33;;;;;;;6.03;4.27;;;;;;;5.51;100.00;101207.53;5016813;28;20184;-77
2021/05/03 05:41:01;;;;;;;4.93;4.43;;;;;;;5.44;100.00;101207.63;5028943;28;20235;-77
2021/05/03 05:43:28;;;;;;;6.27;3.97;;;;;;;5.71;100.00;101202.72;5035732;28;20187;-77
2021/05/03 05:45:59;;;;;;;7.43;4.40;;;;;;;5.67;100.00;101215.00;5034911;28;20227;-77
2021/05/03 05:48:27;;;;;;;5.77;4.90;;;;;;;5.67;100.00;101213.13;5014108;28;20309;-76
2021/05/03 05:50:53;;;;;;;4.97;4.47;;;;;;;6.06;100.00;101213.44;5011982;28;20295;-78
2021/05/03 05:53:23;;;;;;;5.00;4.50;;;;;;;5.98;100.00;101211.06;5009880;28;20272;-77
2021/05/03 05:55:49;;;;;;;6.27;5.67;;;;;;;6.20;100.00;101214.88;4993524;28;20233;-78
2021/05/03 05:58:17;;;;;;;6.47;4.17;;;;;;;6.17;100.00;101216.19;5011504;28;20560;-76
2021/05/03 06:00:43;;;;;;;4.63;4.07;;;;;;;6.15;100.00;101217.44;5010812;28;20257;-77
2021/05/03 06:03:08;;;;;;;4.87;4.00;;;;;;;6.30;100.00;101215.13;5010263;28;20181;-77
2021/05/03 06:05:36;;;;;;;7.10;4.20;;;;;;;6.43;100.00;101209.53;5010631;28;20213;-76
2021/05/03 06:08:02;;;;;;;5.10;4.33;;;;;;;6.34;100.00;101200.16;4995141;28;20213;-77
2021/05/03 06:10:30;;;;;;;4.40;3.93;;;;;;;6.53;100.00;101200.63;5011874;28;20225;-77
2021/05/03 06:12:55;;;;;;;3.80;3.40;;;;;;;6.63;100.00;101205.47;5004418;28;20201;-76
2021/05/03 06:15:21;;;;;;;4.30;3.87;;;;;;;6.60;100.00;101206.75;4994393;28;20181;-75
2021/05/03 06:17:46;;;;;;;4.57;4.00;;;;;;;6.92;100.00;101194.56;4995247;28;20179;-77
2021/05/03 06:20:17;;;;;;;4.87;3.83;;;;;;;6.98;100.00;101199.03;4994840;28;20200;-77
2021/05/03 06:22:45;;;;;;;4.90;3.70;;;;;;;6.95;100.00;101210.28;5012390;28;20212;-77
2021/05/03 06:25:11;;;;;;;4.33;3.77;;;;;;;7.18;100.00;101216.50;4993891;28;20169;-77
2021/05/03 06:27:46;;;;;;;5.57;3.47;;;;;;;6.90;100.00;101205.63;5003578;28;20213;-75
2021/05/03 06:30:14;;;;;;;3.83;3.27;;;;;;;7.09;100.00;101207.13;4995211;28;20654;-76
2021/05/03 06:32:42;;;;;;;4.07;3.30;;;;;;;7.18;100.00;101204.88;4993879;28;20181;-77
2021/05/03 06:35:08;;;;;;;4.67;3.13;;;;;;;7.07;100.00;101203.84;4994979;28;20614;-76
2021/05/03 06:37:36;;;;;;;3.93;2.93;;;;;;;7.12;100.00;101198.53;4994512;28;20192;-77
2021/05/03 06:40:04;;;;;;;4.10;3.20;;;;;;;7.38;100.00;101196.16;5005157;28;20196;-77
2021/05/03 06:42:33;;;;;;;3.73;2.87;;;;;;;7.59;100.00;101195.50;5010619;28;20221;-77
2021/05/03 06:44:59;;;;;;;3.30;3.00;;;;;;;7.53;100.00;101203.75;5013358;28;20169;-77
2021/05/03 06:47:27;;;;;;;4.17;2.83;;;;;;;7.51;100.00;101201.28;5017206;28;20247;-76
2021/05/03 06:49:58;;;;;;;2.97;2.67;;;;;;;7.64;100.00;101195.63;5019545;28;20195;-75
2021/05/03 06:52:24;;;;;;;4.70;2.77;;;;;;;7.86;100.00;101204.72;5032832;28;20236;-77
2021/05/03 06:54:49;;;;;;;3.03;2.80;;;;;;;7.86;100.00;101207.41;5018017;28;20177;-77
2021/05/03 06:57:18;;;;;;;2.40;2.20;;;;;;;7.87;100.00;101203.63;5001197;28;20240;-77
2021/05/03 06:59:46;;;;;;;3.30;2.40;;;;;;;7.95;100.00;101203.22;5014577;28;20185;-76
2021/05/03 07:02:14;;;;;;;4.40;2.50;;;;;;;8.24;100.00;101193.03;4996156;28;20240;-77
2021/05/03 07:04:39;;;;;;;2.43;2.00;;;;;;;8.69;100.00;101199.19;5036619;28;20945;-77
2021/05/03 07:07:05;;;;;;;2.57;2.00;;;;;;;8.54;98.77;101207.06;5017913;28;20220;-77
2021/05/03 07:09:32;;;;;;;2.57;1.90;;;;;;;9.02;97.42;101197.28;5003128;28;20270;-76
2021/05/03 07:12:07;;;;;;;3.37;2.00;;;;;;;9.13;96.88;101196.34;5001487;28;20778;-75
2021/05/03 07:14:35;;;;;;;1.97;1.87;;;;;;;8.75;96.91;101195.50;5035040;28;20619;-76
2021/05/03 07:17:04;;;;;;;2.33;1.90;;;;;;;8.80;97.43;101198.28;5018300;28;20228;-78
2021/05/03 07:19:35;;;;;;;2.40;1.90;;;;;;;8.70;95.00;101206.22;5019495;28;20183;-77
2021/05/03 07:22:02;;;;;;;1.93;1.83;;;;;;;8.73;96.70;101198.44;5018086;28;20884;-77
2021/05/03 07:24:30;;;;;;;3.30;2.20;;;;;;;8.63;96.93;101202.91;4988021;28;20210;-77
2021/05/03 07:27:03;;;;;;;2.17;2.00;;;;;;;8.79;98.02;101202.06;5001601;28;20792;-77
2021/05/03 07:29:31;;;;;;;3.33;1.90;;;;;;;9.13;95.74;101199.88;5002466;28;20192;-77
2021/05/03 07:31:59;;;;;;;3.83;2.17;;;;;;;9.02;94.10;101194.56;5033600;28;20224;-79
2021/05/03 07:34:24;;;;;;;2.20;2.00;;;;;;;8.98;93.42;101188.00;5035258;28;20187;-76
2021/05/03 07:36:50;;;;;;;3.30;2.20;;;;;;;8.89;96.07;101203.84;5001207;28;20220;-77
2021/05/03 07:39:16;;;;;;;2.27;1.97;;;;;;;8.95;94.06;101199.31;5018270;28;20192;-78
2021/05/03 07:41:44;;;;;;;2.57;2.30;;;;;;;8.49;97.37;101198.84;5017515;28;20954;-77
2021/05/03 07:44:10;;;;;;;2.90;2.33;;;;;;;8.53;99.30;101197.28;5035427;28;20255;-77
2021/05/03 07:46:38;;;;;;;2.67;2.37;;;;;;;8.26;100.00;101207.13;5020161;28;20732;-76
2021/05/03 07:49:04;;;;;;;2.10;1.90;;;;;;;7.52;100.00;101218.31;5016843;28;20177;-77
2021/05/03 07:51:32;;;;;;;3.33;2.23;;;;;;;7.51;100.00;101222.06;5015896;28;20228;-77
2021/05/03 07:53:59;;;;;;;3.03;2.77;;;;;;;7.45;100.00;101218.44;5014797;28;20195;-77
2021/05/03 07:56:25;;;;;;;3.27;2.97;;;;;;;7.31;100.00;101217.06;4999358;28;20224;-77
2021/05/03 07:58:56;;;;;;;3.80;2.90;;;;;;;7.25;100.00;101221.78;5000620;28;20192;-76
2021/05/03 08:01:26;;;;;;;4.40;3.30;;;;;;;7.37;100.00;101223.41;5031680;28;20224;-77
2021/05/03 08:03:52;;;;;;;2.87;2.27;;;;;;;7.19;100.00;101215.44;4982289;28;20689;-77
2021/05/03 08:06:20;;;;;;;4.33;3.03;;;;;;;7.24;100.00;101226.38;5020952;28;20231;-76
2021/05/03 08:08:46;;;;;;;2.37;2.17;;;;;;;7.40;100.00;101226.47;5009899;28;20223;-76
2021/05/03 08:11:15;;;;;;;2.63;2.40;;;;;;;7.13;100.00;101234.47;4996457;28;20235;-76
2021/05/03 08:13:42;;;;;;;2.30;2.10;;;;;;;6.94;100.00;101232.94;4996538;28;20537;-75
2021/05/03 08:16:16;;;;;;;3.13;2.30;;;;;;;6.88;100.00;101236.59;4996163;28;20919;-76
2021/05/03 08:18:44;;;;;;;1.93;1.83;;;;;;;6.81;100.00;101243.16;5026286;28;20246;-77
2021/05/03 08:21:12;;;;;;;2.20;2.00;;;;;;;6.81;100.00;101237.75;5000932;28;20232;-77
2021/05/03 08:23:38;;;;;;;3.23;2.20;;;;;;;6.80;100.00;101239.63;4979753;28;20543;-77
2021/05/03 08:26:03;;;;;;;2.60;2.40;;;;;;;6.88;100.00;101247.38;5011925;28;20229;-76
2021/05/03 08:28:31;;;;;;;4.37;2.77;;;;;;;6.56;100.00;101259.56;5005349;28;20208;-76
2021/05/03 08:30:57;;;;;;;2.80;2.60;;;;;;;6.62;100.00;101242.44;4996859;28;20314;-76
2021/05/03 08:33:23;;;;;;;3.30;3.00;;;;;;;6.53;100.00;101253.78;5003472;28;20251;-77
2021/05/03 08:35:48;;;;;;;3.23;2.93;;;;;;;6.37;100.00;101262.53;5010974;28;20229;-76
2021/05/03 08:38:17;;;;;;;3.30;3.00;;;;;;;6.38;100.00;101258.81;4998172;28;20181;-76
2021/05/03 08:40:45;;;;;;;13.63;10.73;;;;;;;6.65;100.00;101250.06;5020692;28;20220;-77
2021/05/03 08:43:13;;;;;;;12.93;9.63;;;;;;;6.72;100.00;101244.53;5026637;28;20305;-75
2021/05/03 08:45:39;;;;;;;3.10;2.87;;;;;;;6.69;100.00;101248.53;5006724;28;20232;-77
2021/05/03 08:53:32;;;;;;;3.33;3.03;;;;;;;7.44;100.00;101234.91;5019240;28;20194;-77
2021/05/03 08:56:00;;;;;;;3.93;3.60;;;;;;;7.71;100.00;101228.75;5018111;28;20231;-76
2021/05/03 08:58:27;;;;;;;3.90;3.60;;;;;;;7.98;100.00;101224.41;5002763;28;20176;-77
2021/05/03 09:00:53;;;;;;;3.93;3.43;;;;;;;7.54;100.00;101233.22;4989920;28;20235;-77
2021/05/03 09:03:21;;;;;;;4.20;3.80;;;;;;;7.42;100.00;101218.94;5012445;28;20681;-77
2021/05/03 09:05:51;;;;;;;4.43;4.03;;;;;;;7.33;100.00;101217.66;4994641;28;20243;-76
2021/05/03 09:08:27;;;;;;;4.70;4.13;;;;;;;7.42;100.00;101223.53;5017001;28;20549;-76
2021/05/03 09:10:55;;;;;;;4.83;4.40;;;;;;;7.41;100.00;101216.47;5011464;28;20679;-76
2021/05/03 09:13:36;;;;;;;5.10;4.70;;;;;;;7.20;100.00;101218.94;5003110;28;20188;-75
2021/05/03 09:16:24;;;;;;;5.90;5.30;;;;;;;7.04;100.00;101208.88;5023362;28;20590;-74
2021/05/03 09:18:50;;;;;;;5.50;5.00;;;;;;;6.93;100.00;101217.81;5009892;28;20256;-74
2021/05/03 09:21:28;;;;;;;5.70;5.20;;;;;;;6.76;100.00;101222.28;4995431;28;20281;-76
2021/05/03 09:24:16;;;;;;;6.20;5.60;;;;;;;7.05;100.00;101211.38;5014861;28;20192;-75
2021/05/03 09:26:48;;;;;;;9.60;8.70;;;;;;;7.06;100.00;101206.78;5033959;28;20975;-77
2021/05/03 09:29:25;;;;;;;9.23;7.93;;;;;;;7.00;100.00;101211.25;5035256;28;20313;-76
2021/05/03 09:32:06;;;;;;;6.77;5.87;;;;;;;7.00;100.00;101203.13;5035445;28;20231;-77
2021/05/03 09:34:37;;;;;;;5.50;5.00;;;;;;;7.10;100.00;101207.94;5000638;28;20188;-74
2021/05/03 09:37:32;;;;;;;5.27;4.77;;;;;;;6.99;100.00;101206.88;5007675;28;20223;-76
2021/05/03 09:40:18;;;;;;;6.03;5.33;;;;;;;6.76;100.00;101210.63;5015298;28;20184;-76
2021/05/03 09:42:50;;;;;;;5.70;5.20;;;;;;;6.92;100.00;101221.56;5029893;28;20307;-77
2021/05/03 09:45:16;;;;;;;6.07;5.40;;;;;;;6.86;100.00;101227.91;5008903;28;20185;-75
2021/05/03 09:47:42;;;;;;;6.70;6.10;;;;;;;6.76;100.00;101216.88;5039447;28;20298;-73
2021/05/03 09:50:17;;;;;;;6.50;5.90;;;;;;;6.83;100.00;101217.59;5043176;28;20307;-75
2021/05/03 09:53:05;;;;;;;7.03;5.77;;;;;;;6.62;100.00;101220.84;4996726;28;20646;-73
2021/05/03 09:55:46;;;;;;;6.90;6.20;;;;;;;6.52;100.00;101212.50;5012482;28;20233;-75
2021/05/03 09:58:16;;;;;;;6.33;5.73;;;;;;;6.78;100.00;101216.66;5023334;28;20184;-76
2021/05/03 10:00:48;;;;;;;6.57;5.73;;;;;;;6.60;100.00;101209.44;5006924;28;20221;-76
2021/05/03 10:03:31;;;;;;;6.47;5.43;;;;;;;6.76;100.00;101205.22;4992983;28;20729;-76
2021/05/03 10:05:57;;;;;;;6.10;5.47;;;;;;;6.78;100.00;101206.66;5003709;28;20219;-76
2021/05/03 10:08:23;;;;;;;8.57;7.67;;;;;;;6.89;100.00;101195.03;5041619;28;20242;-76
2021/05/03 10:10:53;;;;;;;18.97;15.40;;;;;;;6.79;100.00;101204.78;5033102;28;20762;-77
2021/05/03 10:13:22;;;;;;;9.07;8.07;;;;;;;6.97;100.00;101200.09;5050242;28;20195;-74
2021/05/03 10:15:58;;;;;;;17.37;15.33;;;;;;;7.38;100.00;101190.75;4990402;28;20285;-75
2021/05/03 10:18:27;;;;;;;6.23;5.67;;;;;;;7.38;100.00;101182.66;4994751;28;20649;-74
2021/05/03 10:20:56;;;;;;;6.50;5.80;;;;;;;7.59;100.00;101176.59;5017980;28;20223;-76
2021/05/03 10:23:23;;;;;;;6.40;5.70;;;;;;;7.46;100.00;101178.75;4998969;28;20188;-75
2021/05/03 10:25:50;;;;;;;5.30;4.90;;;;;;;7.49;100.00;101171.00;5000524;28;20221;-76
2021/05/03 10:28:18;;;;;;;5.80;5.20;;;;;;;7.71;100.00;101180.09;5025629;28;20227;-76
2021/05/03 10:30:48;;;;;;;6.03;5.43;;;;;;;7.88;100.00;101175.53;5048365;28;20313;-76
2021/05/03 10:33:14;;;;;;;5.93;4.70;;;;;;;8.10;100.00;101178.16;5016297;28;20219;-75
2021/05/03 10:35:46;;;;;;;4.83;4.40;;;;;;;8.31;100.00;101165.78;5024075;28;20216;-75
2021/05/03 10:38:40;;;;;;;4.83;4.33;;;;;;;8.04;100.00;101165.56;5044982;28;20214;-76
2021/05/03 10:41:22;;;;;;;6.03;4.73;;;;;;;8.23;100.00;101169.72;5024212;28;20233;-76
2021/05/03 10:43:48;;;;;;;4.70;4.30;;;;;;;8.15;100.00;101162.00;5030980;28;20274;-76
2021/05/03 10:49:21;;;;;;;5.90;4.30;;;;;;;8.91;100.00;101158.38;5012516;28;20589;-76
2021/05/03 10:52:01;;;;;;;4.93;4.53;;;;;;;9.14;100.00;101150.03;5018116;28;20215;-76
2021/05/03 10:54:47;;;;;;;5.57;5.07;;;;;;;9.07;100.00;101164.84;5014569;28;20188;-76
2021/05/03 10:57:16;;;;;;;5.60;5.10;;;;;;;8.67;100.00;101158.00;5012275;28;20219;-76
2021/05/03 10:59:42;;;;;;;5.30;4.80;;;;;;;8.54;100.00;101150.22;5051727;28;20191;-76
2021/05/03 11:02:14;;;;;;;5.63;4.73;;;;;;;8.34;100.00;101149.88;5032888;28;20613;-77
2021/05/03 11:05:15;;;;;;;6.13;5.00;;;;;;;8.45;100.00;101143.56;5017880;28;20185;-76
2021/05/03 11:08:03;;;;;;;5.70;5.20;;;;;;;8.82;100.00;101136.56;4999371;28;20236;-76
2021/05/03 11:10:55;;;;;;;5.43;4.93;;;;;;;8.85;100.00;101126.06;5012691;28;20238;-75
2021/05/03 11:13:36;;;;;;;6.50;5.43;;;;;;;9.25;100.00;101116.56;5021908;28;20264;-75
2021/05/03 11:16:30;;;;;;;6.43;5.83;;;;;;;9.14;100.00;101116.69;5039636;28;20608;-74
2021/05/03 11:18:57;;;;;;;7.27;6.57;;;;;;;9.37;100.00;101120.78;5029001;28;20196;-76
2021/05/03 11:21:43;;;;;;;7.07;6.37;;;;;;;9.04;100.00;101120.06;5013116;28;20962;-77
2021/05/03 11:24:15;;;;;;;7.87;7.13;;;;;;;9.21;100.00;101118.97;5013280;28;20188;-77
2021/05/03 11:26:49;;;;;;;9.50;6.60;;;;;;;9.13;100.00;101115.88;5031277;28;20266;-76
2021/05/03 11:29:19;;;;;;;7.33;6.63;;;;;;;8.80;100.00;101117.03;5002183;28;20181;-77
2021/05/03 11:31:48;;;;;;;7.13;6.53;;;;;;;8.83;100.00;101115.47;5003117;28;20256;-77
2021/05/03 11:34:28;;;;;;;8.10;7.30;;;;;;;8.64;100.00;101107.84;5027056;28;20258;-75
2021/05/03 11:37:01;;;;;;;7.77;7.00;;;;;;;8.69;100.00;101107.13;5002403;28;20244;-75
2021/05/03 11:44:58;;;;;;;10.33;9.23;;;;;;;8.78;100.00;101108.34;5036530;28;20192;-75
2021/05/03 11:47:31;;;;;;;8.30;7.60;;;;;;;9.08;100.00;101101.44;5050147;28;20231;-75
2021/05/03 11:49:59;;;;;;;8.63;7.83;;;;;;;9.32;100.00;101107.19;5054339;28;20609;-76
2021/05/03 11:52:26;;;;;;;9.13;8.13;;;;;;;9.99;100.00;101098.44;4992980;28;20224;-75
2021/05/03 11:54:52;;;;;;;8.10;7.30;;;;;;;10.41;100.00;101081.94;5012529;28;20280;-76
2021/05/03 11:57:19;;;;;;;8.03;7.23;;;;;;;11.44;100.00;101078.16;5022245;28;20522;-74
2021/05/03 11:59:57;;;;;;;7.60;6.90;;;;;;;11.64;100.00;101079.03;5040488;28;20192;-74